Temperatura - Umidità - Pioggia orarie dal 11-01-2022 al 19-01-2022

Intensità - Direzione vento orarie dal 11-01-2022 al 19-01-2022

Dati orari da stazione meteo dal 11-01-2022 al 19-01-2022

Nome Stazione Data Ora Temperatura [°C] Umidità [%] Pioggia [mm] Intensità vento[km/h] Direzione vento [°]
Savigliano 11-01-2022 01:00 -3.3 75.9 0 0.4 209
Savigliano 11-01-2022 02:00 -3.1 75.6 0 1.1 181
Savigliano 11-01-2022 03:00 -3.4 74.4 0 2.2 173
Savigliano 11-01-2022 04:00 -3.3 74.3 0 1.8 190
Savigliano 11-01-2022 05:00 -3.1 72.2 0 2.2 174
Savigliano 11-01-2022 06:00 -3.2 76.7 0 5 167
Savigliano 11-01-2022 07:00 -3.4 70.8 0 1.1 206
Savigliano 11-01-2022 08:00 -3.4 76.2 0 0 216
Savigliano 11-01-2022 09:00 -3.2 76 0 1.4 198
Savigliano 11-01-2022 10:00 0.7 60.3 0 1.4 239
Savigliano 11-01-2022 11:00 3.1 53.3 0 1.4 165
Savigliano 11-01-2022 12:00 5.2 48.2 0 0.4 200
Savigliano 11-01-2022 13:00 7.5 39.8 0 2.2 175
Savigliano 11-01-2022 14:00 9.8 30.1 0 2.2 176
Savigliano 11-01-2022 15:00 9 33.4 0 4.7 125
Savigliano 11-01-2022 16:00 9.6 35.6 0 2.9 132
Savigliano 11-01-2022 17:00 9.5 33.1 0 0 129
Savigliano 11-01-2022 18:00 5.4 40 0 0.4 65
Savigliano 11-01-2022 19:00 4.7 48 0 0.4 197
Savigliano 11-01-2022 20:00 2.8 52.2 0 0 281
Savigliano 11-01-2022 21:00 1.7 58 0 0.4 264
Savigliano 11-01-2022 22:00 -0.2 65.3 0 0 262
Savigliano 11-01-2022 23:00 -2.5 74.3 0 0.4 209
Savigliano 12-01-2022 00:00 -3.4 76.2 0 0.7 163
Savigliano 12-01-2022 01:00 -2.5 71.3 0 0.4 181
Savigliano 12-01-2022 02:00 -0.5 64.7 0 0 243
Savigliano 12-01-2022 03:00 -1.3 63.6 0 1.1 292
Savigliano 12-01-2022 04:00 -0.7 64.9 0 0.4 299
Savigliano 12-01-2022 05:00 -2 71.3 0 1.1 254
Savigliano 12-01-2022 06:00 -4.2 76.1 0 0.4 165
Savigliano 12-01-2022 07:00 -3.3 76.4 0 1.1 187
Savigliano 12-01-2022 08:00 -3.4 76.4 0 0.4 226
Savigliano 12-01-2022 09:00 -2 71.8 0 1.4 238
Savigliano 12-01-2022 10:00 -0.9 68.9 0 3.2 143
Savigliano 12-01-2022 11:00 1.9 67.6 0 2.9 130
Savigliano 12-01-2022 12:00 2.3 61.8 0 4 103
Savigliano 12-01-2022 13:00 4.3 57.3 0 2.2 90
Savigliano 12-01-2022 14:00 5.8 50.8 0 1.1 133
Savigliano 12-01-2022 15:00 7.1 45.8 0 0.4 110
Savigliano 12-01-2022 16:00 6.8 45.2 0 0.7 76
Savigliano 12-01-2022 17:00 4.9 50.2 0 0.4 47
Savigliano 12-01-2022 18:00 3.3 57.1 0 0 55
Savigliano 12-01-2022 19:00 1.8 64.5 0 0 56
Savigliano 12-01-2022 20:00 0.1 70.9 0 0 71
Savigliano 12-01-2022 21:00 -0.5 70.9 0 0 148
Savigliano 12-01-2022 22:00 -2.2 75.2 0 0.4 203
Savigliano 12-01-2022 23:00 -3.6 81.1 0 0 156
Savigliano 13-01-2022 00:00 -3.4 79.1 0 0 172
Savigliano 13-01-2022 01:00 -3.2 79.9 0 2.2 189
Savigliano 13-01-2022 02:00 -3.2 82.5 0 0 189
Savigliano 13-01-2022 03:00 -3.8 82.7 0 0.4 184
Savigliano 13-01-2022 04:00 -5.1 81.7 0 1.1 175
Savigliano 13-01-2022 05:00 -4.9 82.2 0 0.4 170
Savigliano 13-01-2022 06:00 -6 81.2 0 2.9 177
Savigliano 13-01-2022 07:00 -5.3 82.4 0 0.7 187
Savigliano 13-01-2022 08:00 -6 81.9 0 0.7 207
Savigliano 13-01-2022 09:00 -4.5 82.2 0 0.4 183
Savigliano 13-01-2022 10:00 -1.8 78 0 0.7 173
Savigliano 13-01-2022 11:00 1.3 70.9 0 2.5 136
Savigliano 13-01-2022 12:00 2.4 64.9 0 3.2 151
Savigliano 13-01-2022 13:00 4.7 58.5 0 2.2 169
Savigliano 13-01-2022 14:00 6.6 52.4 0 1.1 123
Savigliano 13-01-2022 15:00 7.1 51.2 0 2.9 97
Savigliano 13-01-2022 16:00 7 50.4 0 1.4 148
Savigliano 13-01-2022 17:00 6.4 53.1 0 0 31
Savigliano 13-01-2022 18:00 4.1 58.8 0 0 0
Savigliano 13-01-2022 19:00 1.5 66.7 0 0 8
Savigliano 13-01-2022 20:00 -0.4 71.2 0 0 136
Savigliano 13-01-2022 21:00 -0.5 76.8 0 2.2 161
Savigliano 13-01-2022 22:00 -1.1 73.1 0 4 175
Savigliano 13-01-2022 23:00 -2 74.5 0 1.1 190
Savigliano 14-01-2022 00:00 -3.4 76.6 0 4.3 182
Savigliano 14-01-2022 01:00 -3.4 76.6 0 0.7 193
Savigliano 14-01-2022 02:00 -3.3 79.5 0 1.8 193
Savigliano 14-01-2022 03:00 -3 82.6 0 1.8 189
Savigliano 14-01-2022 04:00 -3.4 78.2 0 1.8 178
Savigliano 14-01-2022 05:00 -3.2 76.4 0 2.2 175
Savigliano 14-01-2022 06:00 -3.1 80.2 0 3.2 182
Savigliano 14-01-2022 07:00 -2.5 72.7 0 2.5 204
Savigliano 14-01-2022 08:00 -1.6 67.2 0 3.6 204
Savigliano 14-01-2022 09:00 -2.8 76.8 0 2.2 164
Savigliano 14-01-2022 10:00 1.2 70.7 0 2.9 170
Savigliano 14-01-2022 11:00 4.6 59.8 0 1.4 168
Savigliano 14-01-2022 12:00 6.8 47.5 0 0 165
Savigliano 14-01-2022 13:00 7.6 43.1 0 0.7 250
Savigliano 14-01-2022 14:00 9.8 37.5 0 0.7 291
Savigliano 14-01-2022 15:00 8.9 43.4 0 2.9 178
Savigliano 14-01-2022 16:00 9.6 35.8 0 0.4 70
Savigliano 14-01-2022 17:00 9.5 38 0 0 85
Savigliano 14-01-2022 18:00 6.3 45.9 0 0 85
Savigliano 14-01-2022 19:00 4.7 58.6 0 0 91
Savigliano 14-01-2022 20:00 3.5 61.7 0 0 112
Savigliano 14-01-2022 21:00 2 65.1 0 1.1 182
Savigliano 14-01-2022 22:00 -0.6 73.9 0 0 216
Savigliano 14-01-2022 23:00 -0.8 77.2 0 1.1 177
Savigliano 15-01-2022 00:00 -0.5 79 0 4.7 171
Savigliano 15-01-2022 01:00 -0.7 77.4 0 6.8 176
Savigliano 15-01-2022 02:00 0.1 74.3 0 5.4 180
Savigliano 15-01-2022 03:00 0.3 71.5 0 0.4 226
Savigliano 15-01-2022 04:00 -0.7 76.9 0 0 228
Savigliano 15-01-2022 05:00 -1.5 81 0 0 228
Savigliano 15-01-2022 06:00 -0.9 77.1 0 0 204
Savigliano 15-01-2022 07:00 -0.9 77 0 2.9 222
Savigliano 15-01-2022 08:00 -1.4 76.7 0 1.8 176
Savigliano 15-01-2022 09:00 -1.7 79.2 0 1.4 175
Savigliano 15-01-2022 10:00 2.4 71.3 0 0 175
Savigliano 15-01-2022 11:00 5.9 63.2 0 0.7 172
Savigliano 15-01-2022 12:00 8.5 53.4 0 0.7 159
Savigliano 15-01-2022 13:00 11.3 46.9 0 1.1 209
Savigliano 15-01-2022 14:00 11.9 49.6 0 1.8 287
Savigliano 15-01-2022 15:00 12.3 46.8 0 1.8 295
Savigliano 15-01-2022 16:00 12.1 38.6 0 1.1 287
Savigliano 15-01-2022 17:00 11.5 39.7 0 0 306
Savigliano 15-01-2022 18:00 8.1 49.2 0 0 308
Savigliano 15-01-2022 19:00 4.8 59.6 0 0 265
Savigliano 15-01-2022 20:00 3 63.8 0 0 201
Savigliano 15-01-2022 21:00 1.9 70.4 0 0 201
Savigliano 15-01-2022 22:00 -0.5 75.1 0 0 200
Savigliano 15-01-2022 23:00 0.1 74.9 0 1.4 202
Savigliano 16-01-2022 00:00 0.9 67.9 0 0.7 221
Savigliano 16-01-2022 01:00 -0.6 77.8 0 1.1 197
Savigliano 16-01-2022 02:00 -0.7 79.5 0 0 179
Savigliano 16-01-2022 03:00 -0.5 77 0 0 179
Savigliano 16-01-2022 04:00 -1 78.9 0 2.9 176
Savigliano 16-01-2022 05:00 -1.6 82.7 0 5.8 174
Savigliano 16-01-2022 06:00 -2.7 82.8 0 4 186
Savigliano 16-01-2022 07:00 -3.1 82.8 0 4 170
Savigliano 16-01-2022 08:00 -3.4 81.4 0 0.7 171
Savigliano 16-01-2022 09:00 -2.5 82.5 0 0.4 170
Savigliano 16-01-2022 10:00 0.5 77.4 0 0.7 165
Savigliano 16-01-2022 11:00 3.9 70.9 0 2.2 143
Savigliano 16-01-2022 12:00 5.3 66.2 0 1.4 126
Savigliano 16-01-2022 13:00 7.5 58 0 0.7 107
Savigliano 16-01-2022 14:00 9.7 52.3 0 1.1 156
Savigliano 16-01-2022 15:00 10.4 48.8 0 1.4 271
Savigliano 16-01-2022 16:00 10.9 47.4 0 0 126
Savigliano 16-01-2022 17:00 10 51.6 0 0.4 290
Savigliano 16-01-2022 18:00 6.4 65.7 0 0.4 324
Savigliano 16-01-2022 19:00 4.4 66.9 0 0 325
Savigliano 16-01-2022 20:00 4 73 0 0.4 244
Savigliano 16-01-2022 21:00 1.1 77.7 0 0 168
Savigliano 16-01-2022 22:00 -0.6 81.1 0 0.4 158
Savigliano 16-01-2022 23:00 -0.6 83.6 0 0.4 165
Savigliano 17-01-2022 00:00 -0.6 82.9 0 0.4 171
Savigliano 17-01-2022 01:00 -0.4 83.1 0 1.1 183
Savigliano 17-01-2022 02:00 -1.6 82.7 0 0.4 196
Savigliano 17-01-2022 03:00 -2.9 82.3 0 1.4 170
Savigliano 17-01-2022 04:00 -2.1 81.4 0 3.6 173
Savigliano 17-01-2022 05:00 -1.4 77.5 0 5.4 179
Savigliano 17-01-2022 06:00 -1.9 76.4 0 4 180
Savigliano 17-01-2022 07:00 -3.2 78.8 0 0.4 188
Savigliano 17-01-2022 08:00 -1 72.5 0 7.9 175
Savigliano 17-01-2022 09:00 -0.7 70.9 0 2.5 174
Savigliano 17-01-2022 10:00 2.6 65.4 0 1.1 165
Savigliano 17-01-2022 11:00 5.7 62.7 0 1.1 155
Savigliano 17-01-2022 12:00 7.7 56.5 0 0.7 138
Savigliano 17-01-2022 13:00 9.7 46.3 0 1.8 129
Savigliano 17-01-2022 14:00 12.2 37.6 0 2.2 101
Savigliano 17-01-2022 15:00 11.9 35.3 0 2.9 67
Savigliano 17-01-2022 16:00 13.1 38 0 0.7 289
Savigliano 17-01-2022 17:00 13.7 44.2 0 0 321
Savigliano 17-01-2022 18:00 7.5 65.7 0 0 327
Savigliano 17-01-2022 19:00 5.9 71.8 0 1.1 304
Savigliano 17-01-2022 20:00 5 68.7 0 0.4 269
Savigliano 17-01-2022 21:00 3.7 67 0 2.5 244
Savigliano 17-01-2022 22:00 3.5 60.9 0 3.2 200
Savigliano 17-01-2022 23:00 0.6 71.6 0 3.2 168
Savigliano 18-01-2022 00:00 -0.6 71.2 0 12.2 165
Savigliano 18-01-2022 01:00 -0.7 70.8 0 7.6 160
Savigliano 18-01-2022 02:00 -0.5 71.6 0 8.3 168
Savigliano 18-01-2022 03:00 0.2 67.3 0 8.3 165
Savigliano 12-01-2022 05:35 0 0 0.1 0 0
Savigliano 18-01-2022 04:00 0 0 0 7.2 171
Savigliano 11-01-2022 14:20 0 0 0 0 194
Savigliano 11-01-2022 22:40 0 0 0 0 188
Savigliano 12-01-2022 14:20 0 0 0 0 156
Savigliano 12-01-2022 22:40 0 0 0 0 99
Savigliano 13-01-2022 14:20 0 0 0 0 166
Savigliano 13-01-2022 22:40 0 0 0 0 100
Savigliano 14-01-2022 14:20 0 0 0 0 205
Savigliano 14-01-2022 22:40 0 0 0 0 126
Savigliano 15-01-2022 14:20 0 0 0 0 200
Savigliano 15-01-2022 22:40 0 0 0 0 253
Savigliano 16-01-2022 14:20 0 0 0 0 158
Savigliano 16-01-2022 22:40 0 0 0 0 229
Savigliano 17-01-2022 14:20 0 0 0 0 150
Savigliano 17-01-2022 22:40 0 0 0 0 253

Riassuntivo giornaliero del 18-01-2022